sensor_id;sensor_type;location;lat;lon;timestamp;P1;durP1;ratioP1;P2;durP2;ratioP2
21705;SDS011;11014;53.076;18.208;2023-01-26T00:01:23;60.65;;;24.90;;
21705;SDS011;11014;53.076;18.208;2023-01-26T00:03:56;62.72;;;27.63;;
21705;SDS011;11014;53.076;18.208;2023-01-26T00:06:25;61.10;;;23.77;;
21705;SDS011;11014;53.076;18.208;2023-01-26T00:08:54;59.22;;;23.20;;
21705;SDS011;11014;53.076;18.208;2023-01-26T00:11:25;56.83;;;24.02;;
21705;SDS011;11014;53.076;18.208;2023-01-26T00:13:58;52.97;;;21.38;;
21705;SDS011;11014;53.076;18.208;2023-01-26T00:16:34;57.10;;;23.17;;
21705;SDS011;11014;53.076;18.208;2023-01-26T00:19:02;54.97;;;22.23;;
21705;SDS011;11014;53.076;18.208;2023-01-26T00:21:31;60.25;;;23.42;;
21705;SDS011;11014;53.076;18.208;2023-01-26T00:23:59;59.85;;;22.63;;
21705;SDS011;11014;53.076;18.208;2023-01-26T00:26:28;58.67;;;23.42;;
21705;SDS011;11014;53.076;18.208;2023-01-26T00:28:58;63.88;;;23.35;;
21705;SDS011;11014;53.076;18.208;2023-01-26T00:31:27;62.25;;;23.10;;
21705;SDS011;11014;53.076;18.208;2023-01-26T00:33:55;63.88;;;24.65;;
21705;SDS011;11014;53.076;18.208;2023-01-26T00:36:24;56.47;;;23.88;;
21705;SDS011;11014;53.076;18.208;2023-01-26T00:38:53;63.13;;;23.02;;
21705;SDS011;11014;53.076;18.208;2023-01-26T00:41:21;62.38;;;23.52;;
21705;SDS011;11014;53.076;18.208;2023-01-26T00:44:08;64.43;;;23.52;;
21705;SDS011;11014;53.076;18.208;2023-01-26T00:46:37;65.97;;;24.92;;
21705;SDS011;11014;53.076;18.208;2023-01-26T00:49:06;64.57;;;25.15;;
21705;SDS011;11014;53.076;18.208;2023-01-26T00:51:35;62.63;;;24.20;;
21705;SDS011;11014;53.076;18.208;2023-01-26T00:54:04;64.30;;;24.23;;
21705;SDS011;11014;53.076;18.208;2023-01-26T00:56:32;64.55;;;23.60;;
21705;SDS011;11014;53.076;18.208;2023-01-26T00:59:01;64.07;;;23.48;;
21705;SDS011;11014;53.076;18.208;2023-01-26T01:01:29;67.82;;;23.27;;
21705;SDS011;11014;53.076;18.208;2023-01-26T01:03:58;69.05;;;24.15;;
21705;SDS011;11014;53.076;18.208;2023-01-26T01:06:26;57.55;;;22.98;;
21705;SDS011;11014;53.076;18.208;2023-01-26T01:08:54;60.05;;;23.60;;
21705;SDS011;11014;53.076;18.208;2023-01-26T01:11:23;72.47;;;25.23;;
21705;SDS011;11014;53.076;18.208;2023-01-26T01:13:52;69.50;;;24.02;;
21705;SDS011;11014;53.076;18.208;2023-01-26T01:16:21;69.88;;;23.02;;
21705;SDS011;11014;53.076;18.208;2023-01-26T01:18:53;68.03;;;24.65;;
21705;SDS011;11014;53.076;18.208;2023-01-26T01:21:22;68.40;;;25.38;;
21705;SDS011;11014;53.076;18.208;2023-01-26T01:23:52;70.28;;;23.63;;
21705;SDS011;11014;53.076;18.208;2023-01-26T01:26:21;75.60;;;24.10;;
21705;SDS011;11014;53.076;18.208;2023-01-26T01:28:51;77.05;;;25.40;;
21705;SDS011;11014;53.076;18.208;2023-01-26T01:31:23;72.97;;;24.67;;
21705;SDS011;11014;53.076;18.208;2023-01-26T01:33:52;77.50;;;25.33;;
21705;SDS011;11014;53.076;18.208;2023-01-26T01:36:21;81.35;;;25.98;;
21705;SDS011;11014;53.076;18.208;2023-01-26T01:38:52;74.97;;;24.50;;
21705;SDS011;11014;53.076;18.208;2023-01-26T01:41:20;75.28;;;24.60;;
21705;SDS011;11014;53.076;18.208;2023-01-26T01:44:15;71.10;;;24.48;;
21705;SDS011;11014;53.076;18.208;2023-01-26T01:47:00;71.32;;;22.92;;
21705;SDS011;11014;53.076;18.208;2023-01-26T01:49:33;73.78;;;23.73;;
21705;SDS011;11014;53.076;18.208;2023-01-26T01:52:15;73.78;;;24.30;;
21705;SDS011;11014;53.076;18.208;2023-01-26T01:54:54;79.45;;;23.88;;
21705;SDS011;11014;53.076;18.208;2023-01-26T01:57:30;75.78;;;23.50;;
21705;SDS011;11014;53.076;18.208;2023-01-26T02:00:16;94.63;;;24.45;;
21705;SDS011;11014;53.076;18.208;2023-01-26T02:03:10;81.93;;;24.55;;
21705;SDS011;11014;53.076;18.208;2023-01-26T02:05:51;83.72;;;23.55;;
21705;SDS011;11014;53.076;18.208;2023-01-26T02:08:28;80.10;;;22.80;;
21705;SDS011;11014;53.076;18.208;2023-01-26T02:11:02;80.38;;;23.95;;
21705;SDS011;11014;53.076;18.208;2023-01-26T02:13:36;79.35;;;23.45;;
21705;SDS011;11014;53.076;18.208;2023-01-26T02:16:06;91.57;;;23.50;;
21705;SDS011;11014;53.076;18.208;2023-01-26T02:18:35;129.23;;;24.35;;
21705;SDS011;11014;53.076;18.208;2023-01-26T02:21:04;88.25;;;23.33;;
21705;SDS011;11014;53.076;18.208;2023-01-26T02:26:31;103.93;;;24.98;;
21705;SDS011;11014;53.076;18.208;2023-01-26T02:29:03;127.97;;;24.73;;
21705;SDS011;11014;53.076;18.208;2023-01-26T02:31:40;111.85;;;24.02;;
21705;SDS011;11014;53.076;18.208;2023-01-26T02:34:09;143.48;;;25.33;;
21705;SDS011;11014;53.076;18.208;2023-01-26T02:36:38;92.13;;;24.52;;
21705;SDS011;11014;53.076;18.208;2023-01-26T02:41:48;87.80;;;24.30;;
21705;SDS011;11014;53.076;18.208;2023-01-26T02:44:38;86.07;;;23.63;;
21705;SDS011;11014;53.076;18.208;2023-01-26T02:47:15;97.07;;;23.65;;
21705;SDS011;11014;53.076;18.208;2023-01-26T02:49:47;97.88;;;24.92;;
21705;SDS011;11014;53.076;18.208;2023-01-26T02:52:20;93.22;;;24.85;;
21705;SDS011;11014;53.076;18.208;2023-01-26T02:55:16;106.22;;;24.50;;
21705;SDS011;11014;53.076;18.208;2023-01-26T02:58:01;110.78;;;24.85;;
21705;SDS011;11014;53.076;18.208;2023-01-26T03:00:34;105.28;;;24.77;;
21705;SDS011;11014;53.076;18.208;2023-01-26T03:03:12;136.40;;;26.75;;
21705;SDS011;11014;53.076;18.208;2023-01-26T03:05:44;103.65;;;24.80;;
21705;SDS011;11014;53.076;18.208;2023-01-26T03:08:13;139.63;;;25.08;;
21705;SDS011;11014;53.076;18.208;2023-01-26T03:10:42;114.38;;;26.05;;
21705;SDS011;11014;53.076;18.208;2023-01-26T03:13:10;112.47;;;25.35;;
21705;SDS011;11014;53.076;18.208;2023-01-26T03:15:39;106.57;;;25.30;;
21705;SDS011;11014;53.076;18.208;2023-01-26T03:18:13;119.68;;;25.70;;
21705;SDS011;11014;53.076;18.208;2023-01-26T03:21:03;156.82;;;26.15;;
21705;SDS011;11014;53.076;18.208;2023-01-26T03:23:55;120.15;;;24.75;;
21705;SDS011;11014;53.076;18.208;2023-01-26T03:26:43;102.43;;;26.02;;
21705;SDS011;11014;53.076;18.208;2023-01-26T03:29:31;121.00;;;26.55;;
21705;SDS011;11014;53.076;18.208;2023-01-26T03:32:02;109.70;;;26.77;;
21705;SDS011;11014;53.076;18.208;2023-01-26T03:34:31;162.90;;;26.15;;
21705;SDS011;11014;53.076;18.208;2023-01-26T03:36:59;146.75;;;29.55;;
21705;SDS011;11014;53.076;18.208;2023-01-26T03:39:36;136.15;;;28.13;;
21705;SDS011;11014;53.076;18.208;2023-01-26T03:42:24;144.02;;;28.23;;
21705;SDS011;11014;53.076;18.208;2023-01-26T03:45:11;157.95;;;28.80;;
21705;SDS011;11014;53.076;18.208;2023-01-26T03:48:09;146.88;;;28.85;;
21705;SDS011;11014;53.076;18.208;2023-01-26T03:50:58;131.02;;;29.30;;
21705;SDS011;11014;53.076;18.208;2023-01-26T03:53:46;123.20;;;28.90;;
21705;SDS011;11014;53.076;18.208;2023-01-26T03:56:44;126.72;;;28.17;;
21705;SDS011;11014;53.076;18.208;2023-01-26T04:02:11;152.23;;;33.40;;
21705;SDS011;11014;53.076;18.208;2023-01-26T04:04:59;117.10;;;33.95;;
21705;SDS011;11014;53.076;18.208;2023-01-26T04:07:49;136.18;;;38.20;;
21705;SDS011;11014;53.076;18.208;2023-01-26T04:10:36;146.15;;;40.85;;
21705;SDS011;11014;53.076;18.208;2023-01-26T04:13:08;133.95;;;37.55;;
21705;SDS011;11014;53.076;18.208;2023-01-26T04:16:02;132.57;;;33.88;;
21705;SDS011;11014;53.076;18.208;2023-01-26T04:18:50;120.18;;;31.60;;
21705;SDS011;11014;53.076;18.208;2023-01-26T04:21:37;123.63;;;31.63;;
21705;SDS011;11014;53.076;18.208;2023-01-26T04:24:13;124.07;;;32.75;;
21705;SDS011;11014;53.076;18.208;2023-01-26T04:26:45;117.75;;;31.75;;
21705;SDS011;11014;53.076;18.208;2023-01-26T04:29:18;119.28;;;32.72;;
21705;SDS011;11014;53.076;18.208;2023-01-26T04:31:50;131.00;;;33.58;;
21705;SDS011;11014;53.076;18.208;2023-01-26T04:34:21;113.00;;;33.30;;
21705;SDS011;11014;53.076;18.208;2023-01-26T04:36:50;110.25;;;32.45;;
21705;SDS011;11014;53.076;18.208;2023-01-26T04:39:24;112.85;;;33.50;;
21705;SDS011;11014;53.076;18.208;2023-01-26T04:41:55;119.95;;;34.42;;
21705;SDS011;11014;53.076;18.208;2023-01-26T04:44:25;127.18;;;33.97;;
21705;SDS011;11014;53.076;18.208;2023-01-26T04:46:57;110.40;;;32.53;;
21705;SDS011;11014;53.076;18.208;2023-01-26T04:49:30;122.95;;;33.55;;
21705;SDS011;11014;53.076;18.208;2023-01-26T04:51:59;112.47;;;32.25;;
21705;SDS011;11014;53.076;18.208;2023-01-26T04:54:29;124.18;;;33.70;;
21705;SDS011;11014;53.076;18.208;2023-01-26T04:56:57;125.97;;;35.55;;
21705;SDS011;11014;53.076;18.208;2023-01-26T04:59:28;118.47;;;35.97;;
21705;SDS011;11014;53.076;18.208;2023-01-26T05:02:04;122.45;;;35.08;;
21705;SDS011;11014;53.076;18.208;2023-01-26T05:04:33;114.75;;;31.90;;
21705;SDS011;11014;53.076;18.208;2023-01-26T05:07:02;119.35;;;34.75;;
21705;SDS011;11014;53.076;18.208;2023-01-26T05:09:31;116.93;;;35.45;;
21705;SDS011;11014;53.076;18.208;2023-01-26T05:16:18;99.25;;;30.00;;
21705;SDS011;11014;53.076;18.208;2023-01-26T05:19:01;108.97;;;32.47;;
21705;SDS011;11014;53.076;18.208;2023-01-26T05:22:04;106.18;;;32.55;;
21705;SDS011;11014;53.076;18.208;2023-01-26T05:24:36;106.75;;;32.20;;
21705;SDS011;11014;53.076;18.208;2023-01-26T05:27:25;89.93;;;29.20;;
21705;SDS011;11014;53.076;18.208;2023-01-26T05:29:59;89.80;;;29.05;;
21705;SDS011;11014;53.076;18.208;2023-01-26T05:32:30;92.00;;;29.95;;
21705;SDS011;11014;53.076;18.208;2023-01-26T05:34:59;94.00;;;30.20;;
21705;SDS011;11014;53.076;18.208;2023-01-26T05:37:28;95.72;;;29.38;;
21705;SDS011;11014;53.076;18.208;2023-01-26T05:39:57;83.78;;;29.13;;
21705;SDS011;11014;53.076;18.208;2023-01-26T05:42:26;88.45;;;28.80;;
21705;SDS011;11014;53.076;18.208;2023-01-26T05:45:13;94.13;;;30.60;;
21705;SDS011;11014;53.076;18.208;2023-01-26T05:47:43;95.55;;;32.10;;
21705;SDS011;11014;53.076;18.208;2023-01-26T05:50:12;102.85;;;32.50;;
21705;SDS011;11014;53.076;18.208;2023-01-26T05:52:42;93.75;;;30.05;;
21705;SDS011;11014;53.076;18.208;2023-01-26T05:55:13;96.60;;;29.33;;
21705;SDS011;11014;53.076;18.208;2023-01-26T05:57:43;93.72;;;29.63;;
21705;SDS011;11014;53.076;18.208;2023-01-26T06:00:12;88.90;;;29.38;;
21705;SDS011;11014;53.076;18.208;2023-01-26T06:02:42;84.22;;;28.80;;
21705;SDS011;11014;53.076;18.208;2023-01-26T06:05:16;95.25;;;28.55;;
21705;SDS011;11014;53.076;18.208;2023-01-26T06:07:47;86.13;;;27.30;;
21705;SDS011;11014;53.076;18.208;2023-01-26T06:10:22;87.85;;;28.40;;
21705;SDS011;11014;53.076;18.208;2023-01-26T06:13:17;76.20;;;26.58;;
21705;SDS011;11014;53.076;18.208;2023-01-26T06:21:43;77.70;;;24.45;;
21705;SDS011;11014;53.076;18.208;2023-01-26T06:24:13;67.82;;;23.20;;
21705;SDS011;11014;53.076;18.208;2023-01-26T06:26:50;67.25;;;24.50;;
21705;SDS011;11014;53.076;18.208;2023-01-26T06:29:19;71.60;;;24.60;;
21705;SDS011;11014;53.076;18.208;2023-01-26T06:31:48;67.85;;;23.75;;
21705;SDS011;11014;53.076;18.208;2023-01-26T06:34:21;70.30;;;24.70;;
21705;SDS011;11014;53.076;18.208;2023-01-26T06:36:49;64.15;;;23.67;;
21705;SDS011;11014;53.076;18.208;2023-01-26T06:39:26;65.75;;;22.75;;
21705;SDS011;11014;53.076;18.208;2023-01-26T06:41:58;70.53;;;23.13;;
21705;SDS011;11014;53.076;18.208;2023-01-26T06:44:27;69.47;;;24.63;;
21705;SDS011;11014;53.076;18.208;2023-01-26T06:46:56;66.80;;;22.92;;
21705;SDS011;11014;53.076;18.208;2023-01-26T06:49:29;63.70;;;21.98;;
21705;SDS011;11014;53.076;18.208;2023-01-26T06:55:23;61.17;;;21.75;;
21705;SDS011;11014;53.076;18.208;2023-01-26T06:58:14;63.67;;;22.48;;
21705;SDS011;11014;53.076;18.208;2023-01-26T07:01:00;60.70;;;21.60;;
21705;SDS011;11014;53.076;18.208;2023-01-26T07:03:34;60.78;;;21.33;;
21705;SDS011;11014;53.076;18.208;2023-01-26T07:06:03;62.58;;;21.90;;
21705;SDS011;11014;53.076;18.208;2023-01-26T07:08:38;60.63;;;21.40;;
21705;SDS011;11014;53.076;18.208;2023-01-26T07:11:10;62.47;;;21.98;;
21705;SDS011;11014;53.076;18.208;2023-01-26T07:13:47;68.63;;;22.17;;
21705;SDS011;11014;53.076;18.208;2023-01-26T07:16:28;59.85;;;22.13;;
21705;SDS011;11014;53.076;18.208;2023-01-26T07:19:01;59.63;;;21.75;;
21705;SDS011;11014;53.076;18.208;2023-01-26T07:21:38;60.08;;;24.30;;
21705;SDS011;11014;53.076;18.208;2023-01-26T07:24:16;60.60;;;22.70;;
21705;SDS011;11014;53.076;18.208;2023-01-26T07:26:57;53.28;;;21.27;;
21705;SDS011;11014;53.076;18.208;2023-01-26T07:29:28;53.33;;;21.05;;
21705;SDS011;11014;53.076;18.208;2023-01-26T07:31:56;59.60;;;21.92;;
21705;SDS011;11014;53.076;18.208;2023-01-26T07:34:29;71.50;;;22.05;;
21705;SDS011;11014;53.076;18.208;2023-01-26T07:36:57;60.90;;;22.08;;
21705;SDS011;11014;53.076;18.208;2023-01-26T07:39:26;57.70;;;20.75;;
21705;SDS011;11014;53.076;18.208;2023-01-26T07:41:58;58.42;;;21.88;;
21705;SDS011;11014;53.076;18.208;2023-01-26T07:45:01;60.45;;;21.17;;
21705;SDS011;11014;53.076;18.208;2023-01-26T07:48:01;54.35;;;21.55;;
21705;SDS011;11014;53.076;18.208;2023-01-26T07:50:31;61.80;;;21.20;;
21705;SDS011;11014;53.076;18.208;2023-01-26T07:53:15;57.72;;;21.33;;
21705;SDS011;11014;53.076;18.208;2023-01-26T07:59:14;50.05;;;19.13;;
21705;SDS011;11014;53.076;18.208;2023-01-26T08:04:45;47.63;;;18.25;;
21705;SDS011;11014;53.076;18.208;2023-01-26T08:07:28;51.03;;;19.92;;
21705;SDS011;11014;53.076;18.208;2023-01-26T08:10:00;55.25;;;20.27;;
21705;SDS011;11014;53.076;18.208;2023-01-26T08:12:30;55.83;;;20.50;;
21705;SDS011;11014;53.076;18.208;2023-01-26T08:15:42;53.42;;;19.77;;
21705;SDS011;11014;53.076;18.208;2023-01-26T08:18:56;58.33;;;19.85;;
21705;SDS011;11014;53.076;18.208;2023-01-26T08:21:34;56.90;;;20.40;;
21705;SDS011;11014;53.076;18.208;2023-01-26T08:24:02;61.13;;;21.25;;
21705;SDS011;11014;53.076;18.208;2023-01-26T08:26:38;64.68;;;22.25;;
21705;SDS011;11014;53.076;18.208;2023-01-26T08:29:13;49.58;;;19.83;;
21705;SDS011;11014;53.076;18.208;2023-01-26T08:31:42;54.00;;;20.38;;
21705;SDS011;11014;53.076;18.208;2023-01-26T08:34:12;57.42;;;20.35;;
21705;SDS011;11014;53.076;18.208;2023-01-26T08:36:48;50.05;;;20.38;;
21705;SDS011;11014;53.076;18.208;2023-01-26T08:39:20;55.13;;;21.85;;
21705;SDS011;11014;53.076;18.208;2023-01-26T08:41:51;57.83;;;21.05;;
21705;SDS011;11014;53.076;18.208;2023-01-26T08:46:52;59.25;;;22.33;;
21705;SDS011;11014;53.076;18.208;2023-01-26T08:49:35;58.72;;;20.95;;
21705;SDS011;11014;53.076;18.208;2023-01-26T08:52:07;54.07;;;20.20;;
21705;SDS011;11014;53.076;18.208;2023-01-26T08:54:52;56.90;;;20.00;;
21705;SDS011;11014;53.076;18.208;2023-01-26T08:57:24;53.25;;;20.17;;
21705;SDS011;11014;53.076;18.208;2023-01-26T08:59:53;51.17;;;20.83;;
21705;SDS011;11014;53.076;18.208;2023-01-26T09:02:22;53.05;;;19.75;;
21705;SDS011;11014;53.076;18.208;2023-01-26T09:04:56;48.97;;;18.25;;
21705;SDS011;11014;53.076;18.208;2023-01-26T09:07:44;50.92;;;19.02;;
21705;SDS011;11014;53.076;18.208;2023-01-26T09:10:16;45.15;;;17.80;;
21705;SDS011;11014;53.076;18.208;2023-01-26T09:12:51;44.00;;;17.13;;
21705;SDS011;11014;53.076;18.208;2023-01-26T09:15:20;48.05;;;18.90;;
21705;SDS011;11014;53.076;18.208;2023-01-26T09:17:49;51.65;;;18.52;;
21705;SDS011;11014;53.076;18.208;2023-01-26T09:20:21;48.80;;;19.52;;
21705;SDS011;11014;53.076;18.208;2023-01-26T09:22:54;49.70;;;19.58;;
21705;SDS011;11014;53.076;18.208;2023-01-26T09:25:22;48.17;;;20.70;;
21705;SDS011;11014;53.076;18.208;2023-01-26T09:27:53;49.53;;;19.63;;
21705;SDS011;11014;53.076;18.208;2023-01-26T09:30:21;51.17;;;19.58;;
21705;SDS011;11014;53.076;18.208;2023-01-26T09:32:59;46.30;;;18.50;;
21705;SDS011;11014;53.076;18.208;2023-01-26T09:35:34;46.63;;;18.58;;
21705;SDS011;11014;53.076;18.208;2023-01-26T09:38:05;48.20;;;19.52;;
21705;SDS011;11014;53.076;18.208;2023-01-26T09:43:43;53.00;;;20.70;;
21705;SDS011;11014;53.076;18.208;2023-01-26T09:50:22;51.03;;;20.95;;
21705;SDS011;11014;53.076;18.208;2023-01-26T09:52:55;51.83;;;19.80;;
21705;SDS011;11014;53.076;18.208;2023-01-26T09:55:32;38.88;;;17.00;;
21705;SDS011;11014;53.076;18.208;2023-01-26T10:01:00;48.53;;;18.55;;
21705;SDS011;11014;53.076;18.208;2023-01-26T10:06:25;43.90;;;18.38;;
21705;SDS011;11014;53.076;18.208;2023-01-26T10:09:26;41.47;;;17.17;;
21705;SDS011;11014;53.076;18.208;2023-01-26T10:18:17;45.00;;;17.20;;
21705;SDS011;11014;53.076;18.208;2023-01-26T10:20:52;41.20;;;17.08;;
21705;SDS011;11014;53.076;18.208;2023-01-26T10:23:31;40.80;;;16.60;;
21705;SDS011;11014;53.076;18.208;2023-01-26T10:26:26;40.08;;;16.50;;
21705;SDS011;11014;53.076;18.208;2023-01-26T10:29:31;35.53;;;16.05;;
21705;SDS011;11014;53.076;18.208;2023-01-26T10:31:59;40.58;;;16.50;;
21705;SDS011;11014;53.076;18.208;2023-01-26T10:34:31;38.80;;;15.82;;
21705;SDS011;11014;53.076;18.208;2023-01-26T10:37:21;62.22;;;18.38;;
21705;SDS011;11014;53.076;18.208;2023-01-26T10:40:00;37.20;;;15.13;;
21705;SDS011;11014;53.076;18.208;2023-01-26T10:42:56;36.00;;;16.17;;
21705;SDS011;11014;53.076;18.208;2023-01-26T10:45:46;39.47;;;16.73;;
21705;SDS011;11014;53.076;18.208;2023-01-26T10:54:31;38.08;;;16.45;;
21705;SDS011;11014;53.076;18.208;2023-01-26T10:57:17;52.30;;;16.73;;
21705;SDS011;11014;53.076;18.208;2023-01-26T10:59:57;34.60;;;15.35;;
21705;SDS011;11014;53.076;18.208;2023-01-26T11:02:30;45.25;;;18.85;;
21705;SDS011;11014;53.076;18.208;2023-01-26T11:07:42;39.45;;;18.40;;
21705;SDS011;11014;53.076;18.208;2023-01-26T11:10:19;33.92;;;15.30;;
21705;SDS011;11014;53.076;18.208;2023-01-26T11:13:35;32.92;;;13.73;;
21705;SDS011;11014;53.076;18.208;2023-01-26T11:16:20;34.00;;;13.85;;
21705;SDS011;11014;53.076;18.208;2023-01-26T11:18:59;36.15;;;15.90;;
21705;SDS011;11014;53.076;18.208;2023-01-26T11:28:59;30.77;;;14.15;;
21705;SDS011;11014;53.076;18.208;2023-01-26T11:47:25;34.20;;;14.32;;
21705;SDS011;11014;53.076;18.208;2023-01-26T11:50:12;36.17;;;14.77;;
21705;SDS011;11014;53.076;18.208;2023-01-26T11:59:01;34.40;;;15.07;;
21705;SDS011;11014;53.076;18.208;2023-01-26T12:04:57;32.60;;;14.32;;
21705;SDS011;11014;53.076;18.208;2023-01-26T12:07:38;33.15;;;14.93;;
21705;SDS011;11014;53.076;18.208;2023-01-26T12:14:02;37.50;;;14.52;;
21705;SDS011;11014;53.076;18.208;2023-01-26T12:23:10;38.50;;;15.47;;
21705;SDS011;11014;53.076;18.208;2023-01-26T12:26:17;47.08;;;20.10;;
21705;SDS011;11014;53.076;18.208;2023-01-26T12:33:12;35.25;;;14.68;;
21705;SDS011;11014;53.076;18.208;2023-01-26T12:38:32;59.75;;;23.65;;
21705;SDS011;11014;53.076;18.208;2023-01-26T12:44:35;82.65;;;29.83;;
21705;SDS011;11014;53.076;18.208;2023-01-26T12:47:13;79.07;;;30.10;;
21705;SDS011;11014;53.076;18.208;2023-01-26T12:52:58;65.03;;;24.48;;
21705;SDS011;11014;53.076;18.208;2023-01-26T12:55:35;40.50;;;15.57;;
21705;SDS011;11014;53.076;18.208;2023-01-26T12:58:16;40.58;;;16.92;;
21705;SDS011;11014;53.076;18.208;2023-01-26T13:00:55;40.63;;;16.42;;
21705;SDS011;11014;53.076;18.208;2023-01-26T13:04:00;42.42;;;15.70;;
21705;SDS011;11014;53.076;18.208;2023-01-26T13:06:36;38.58;;;16.08;;
21705;SDS011;11014;53.076;18.208;2023-01-26T13:11:44;56.00;;;20.70;;
21705;SDS011;11014;53.076;18.208;2023-01-26T13:22:38;45.00;;;17.57;;
21705;SDS011;11014;53.076;18.208;2023-01-26T13:25:12;51.25;;;17.40;;
21705;SDS011;11014;53.076;18.208;2023-01-26T13:28:00;40.17;;;15.40;;
21705;SDS011;11014;53.076;18.208;2023-01-26T13:31:31;64.85;;;18.92;;
21705;SDS011;11014;53.076;18.208;2023-01-26T13:34:06;43.63;;;17.48;;
21705;SDS011;11014;53.076;18.208;2023-01-26T13:36:37;48.67;;;17.33;;
21705;SDS011;11014;53.076;18.208;2023-01-26T13:39:17;42.15;;;19.10;;
21705;SDS011;11014;53.076;18.208;2023-01-26T13:42:24;47.17;;;20.88;;
21705;SDS011;11014;53.076;18.208;2023-01-26T13:45:02;50.90;;;22.85;;
21705;SDS011;11014;53.076;18.208;2023-01-26T13:48:00;41.00;;;16.77;;
21705;SDS011;11014;53.076;18.208;2023-01-26T13:50:43;43.30;;;17.52;;
21705;SDS011;11014;53.076;18.208;2023-01-26T13:56:39;43.15;;;18.52;;
21705;SDS011;11014;53.076;18.208;2023-01-26T13:59:32;41.95;;;17.80;;
21705;SDS011;11014;53.076;18.208;2023-01-26T14:02:01;42.75;;;18.98;;
21705;SDS011;11014;53.076;18.208;2023-01-26T14:04:30;44.78;;;17.55;;
21705;SDS011;11014;53.076;18.208;2023-01-26T14:10:02;48.17;;;19.85;;
21705;SDS011;11014;53.076;18.208;2023-01-26T14:12:39;38.70;;;16.48;;
21705;SDS011;11014;53.076;18.208;2023-01-26T14:16:33;37.25;;;16.08;;
21705;SDS011;11014;53.076;18.208;2023-01-26T14:19:19;38.70;;;14.40;;
21705;SDS011;11014;53.076;18.208;2023-01-26T14:21:58;40.65;;;15.48;;
21705;SDS011;11014;53.076;18.208;2023-01-26T14:25:17;44.10;;;16.38;;
21705;SDS011;11014;53.076;18.208;2023-01-26T14:27:33;42.45;;;17.95;;
21705;SDS011;11014;53.076;18.208;2023-01-26T14:33:13;44.80;;;19.13;;
21705;SDS011;11014;53.076;18.208;2023-01-26T14:35:53;37.03;;;17.13;;
21705;SDS011;11014;53.076;18.208;2023-01-26T14:38:55;61.00;;;26.02;;
21705;SDS011;11014;53.076;18.208;2023-01-26T14:45:17;46.03;;;19.00;;
21705;SDS011;11014;53.076;18.208;2023-01-26T14:48:46;43.65;;;19.95;;
21705;SDS011;11014;53.076;18.208;2023-01-26T14:52:42;45.33;;;20.50;;
21705;SDS011;11014;53.076;18.208;2023-01-26T14:56:48;60.88;;;27.77;;
21705;SDS011;11014;53.076;18.208;2023-01-26T14:59:20;57.33;;;25.23;;
21705;SDS011;11014;53.076;18.208;2023-01-26T15:02:12;60.67;;;28.17;;
21705;SDS011;11014;53.076;18.208;2023-01-26T15:15:47;41.53;;;17.73;;
21705;SDS011;11014;53.076;18.208;2023-01-26T15:18:31;45.05;;;19.23;;
21705;SDS011;11014;53.076;18.208;2023-01-26T15:21:09;44.47;;;17.55;;
21705;SDS011;11014;53.076;18.208;2023-01-26T15:23:51;40.05;;;16.70;;
21705;SDS011;11014;53.076;18.208;2023-01-26T15:26:24;40.05;;;16.80;;
21705;SDS011;11014;53.076;18.208;2023-01-26T15:28:55;37.17;;;16.63;;
21705;SDS011;11014;53.076;18.208;2023-01-26T15:34:35;44.78;;;18.30;;
21705;SDS011;11014;53.076;18.208;2023-01-26T15:37:30;42.60;;;17.88;;
21705;SDS011;11014;53.076;18.208;2023-01-26T15:40:01;41.17;;;17.67;;
21705;SDS011;11014;53.076;18.208;2023-01-26T15:42:31;44.55;;;19.17;;
21705;SDS011;11014;53.076;18.208;2023-01-26T15:45:14;44.38;;;19.20;;
21705;SDS011;11014;53.076;18.208;2023-01-26T15:51:15;64.68;;;26.95;;
21705;SDS011;11014;53.076;18.208;2023-01-26T15:53:44;94.80;;;37.78;;
21705;SDS011;11014;53.076;18.208;2023-01-26T15:56:13;71.45;;;28.33;;
21705;SDS011;11014;53.076;18.208;2023-01-26T15:58:49;49.22;;;21.20;;
21705;SDS011;11014;53.076;18.208;2023-01-26T16:01:21;43.42;;;18.70;;
21705;SDS011;11014;53.076;18.208;2023-01-26T16:03:50;45.70;;;21.00;;
21705;SDS011;11014;53.076;18.208;2023-01-26T16:06:25;54.03;;;22.60;;
21705;SDS011;11014;53.076;18.208;2023-01-26T16:09:02;47.92;;;20.77;;
21705;SDS011;11014;53.076;18.208;2023-01-26T16:11:42;57.35;;;23.13;;
21705;SDS011;11014;53.076;18.208;2023-01-26T16:14:19;51.22;;;21.23;;
21705;SDS011;11014;53.076;18.208;2023-01-26T16:16:51;59.65;;;25.15;;
21705;SDS011;11014;53.076;18.208;2023-01-26T16:19:23;56.67;;;22.85;;
21705;SDS011;11014;53.076;18.208;2023-01-26T16:25:10;44.55;;;19.45;;
21705;SDS011;11014;53.076;18.208;2023-01-26T16:27:54;44.38;;;17.35;;
21705;SDS011;11014;53.076;18.208;2023-01-26T16:30:45;43.75;;;17.60;;
21705;SDS011;11014;53.076;18.208;2023-01-26T16:33:19;41.58;;;17.15;;
21705;SDS011;11014;53.076;18.208;2023-01-26T16:38:20;53.42;;;20.15;;
21705;SDS011;11014;53.076;18.208;2023-01-26T16:40:53;51.28;;;20.88;;
21705;SDS011;11014;53.076;18.208;2023-01-26T16:43:24;49.03;;;20.15;;
21705;SDS011;11014;53.076;18.208;2023-01-26T16:45:59;45.35;;;19.40;;
21705;SDS011;11014;53.076;18.208;2023-01-26T16:48:28;52.88;;;22.88;;
21705;SDS011;11014;53.076;18.208;2023-01-26T16:51:06;71.72;;;31.75;;
21705;SDS011;11014;53.076;18.208;2023-01-26T16:53:42;65.45;;;28.73;;
21705;SDS011;11014;53.076;18.208;2023-01-26T16:56:11;58.88;;;24.38;;
21705;SDS011;11014;53.076;18.208;2023-01-26T16:58:55;52.05;;;22.20;;
21705;SDS011;11014;53.076;18.208;2023-01-26T17:01:30;53.42;;;21.60;;
21705;SDS011;11014;53.076;18.208;2023-01-26T17:07:03;53.33;;;23.13;;
21705;SDS011;11014;53.076;18.208;2023-01-26T17:09:48;46.08;;;21.27;;
21705;SDS011;11014;53.076;18.208;2023-01-26T17:12:33;47.55;;;19.77;;
21705;SDS011;11014;53.076;18.208;2023-01-26T17:15:06;46.03;;;19.30;;
21705;SDS011;11014;53.076;18.208;2023-01-26T17:20:10;57.13;;;22.75;;
21705;SDS011;11014;53.076;18.208;2023-01-26T17:23:33;72.68;;;26.33;;
21705;SDS011;11014;53.076;18.208;2023-01-26T17:26:04;57.60;;;23.77;;
21705;SDS011;11014;53.076;18.208;2023-01-26T17:28:37;61.17;;;25.40;;
21705;SDS011;11014;53.076;18.208;2023-01-26T17:31:07;69.72;;;26.08;;
21705;SDS011;11014;53.076;18.208;2023-01-26T17:33:40;62.13;;;25.92;;
21705;SDS011;11014;53.076;18.208;2023-01-26T17:36:09;63.97;;;26.52;;
21705;SDS011;11014;53.076;18.208;2023-01-26T17:38:40;60.03;;;25.90;;
21705;SDS011;11014;53.076;18.208;2023-01-26T17:41:09;53.40;;;21.85;;
21705;SDS011;11014;53.076;18.208;2023-01-26T17:43:38;51.88;;;20.15;;
21705;SDS011;11014;53.076;18.208;2023-01-26T17:46:17;46.47;;;21.38;;
21705;SDS011;11014;53.076;18.208;2023-01-26T17:49:12;46.15;;;18.48;;
21705;SDS011;11014;53.076;18.208;2023-01-26T17:51:41;43.75;;;18.55;;
21705;SDS011;11014;53.076;18.208;2023-01-26T17:54:13;43.63;;;18.38;;